Time;durP1;ratioP1;P1;durP2;ratioP2;P2;SDS_P1;SDS_P2;PMS_P1;PMS_P2;Temp;Humidity;BMP_temperature;BMP_pressure;BME280_temperature;BME280_humidity;BME280_pressure;Samples;Min_cycle;Max_cycle;Signal;HPM_P1;HPM_P2
2022/03/03 00:02:17;;;;;;;0.50;0.50;;;;;;;23.84;12.66;100424.31;5052947;28;20025;-72
2022/03/03 00:04:42;;;;;;;0.85;0.57;;;;;;;23.84;12.27;100423.53;5053302;28;20028;-74
2022/03/03 00:07:07;;;;;;;0.57;0.57;;;;;;;23.84;12.40;100423.53;5053238;28;20025;-74
2022/03/03 00:09:33;;;;;;;0.52;0.52;;;;;;;23.84;12.11;100424.31;5053237;28;20478;-74
2022/03/03 00:11:58;;;;;;;0.50;0.50;;;;;;;23.84;12.06;100423.53;5052941;28;20022;-75
2022/03/03 00:14:24;;;;;;;0.52;0.50;;;;;;;23.83;12.32;100422.69;5052951;28;20471;-74
2022/03/03 00:16:49;;;;;;;0.60;0.60;;;;;;;23.84;12.31;100423.53;5053158;28;20033;-75
2022/03/03 00:19:14;;;;;;;0.50;0.50;;;;;;;23.85;11.99;100425.13;5053233;28;20058;-74
2022/03/03 00:21:40;;;;;;;0.50;0.50;;;;;;;23.84;12.19;100412.59;5053312;28;20025;-75
2022/03/03 00:24:06;;;;;;;0.50;0.50;;;;;;;23.84;12.19;100418.06;5052738;28;20118;-74
2022/03/03 00:26:31;;;;;;;0.60;0.60;;;;;;;23.83;11.87;100417.22;5052581;28;20033;-75
2022/03/03 00:28:56;;;;;;;1.00;0.65;;;;;;;23.81;11.82;100414.75;5053848;28;20048;-74
2022/03/03 00:31:23;;;;;;;0.50;0.50;;;;;;;23.82;11.99;100404.69;5053069;28;20471;-74
2022/03/03 00:33:49;;;;;;;0.57;0.50;;;;;;;23.81;11.98;100409.31;5052828;28;20033;-74
2022/03/03 00:36:14;;;;;;;0.65;0.65;;;;;;;23.81;11.76;100411.22;5053044;28;20100;-74
2022/03/03 00:38:40;;;;;;;0.50;0.50;;;;;;;23.81;11.69;100411.22;5035219;28;20451;-74
2022/03/03 00:41:05;;;;;;;0.77;0.57;;;;;;;23.79;11.64;100408.75;5052751;28;20395;-75
2022/03/03 00:43:30;;;;;;;0.50;0.50;;;;;;;23.83;11.65;100416.41;5052866;28;20036;-75
2022/03/03 00:45:56;;;;;;;0.50;0.50;;;;;;;23.80;11.82;100412.28;5052897;28;20498;-75
2022/03/03 00:48:21;;;;;;;0.40;0.40;;;;;;;23.80;11.80;100410.38;5052639;28;20414;-74
2022/03/03 00:50:47;;;;;;;0.50;0.50;;;;;;;23.81;11.48;100405.78;5052940;28;20022;-75
2022/03/03 00:53:12;;;;;;;0.60;0.60;;;;;;;23.80;11.74;100404.94;5052993;28;20029;-75
2022/03/03 00:55:37;;;;;;;0.52;0.52;;;;;;;23.81;11.53;100408.50;5052957;28;20439;-74
2022/03/03 00:58:03;;;;;;;0.50;0.50;;;;;;;23.81;11.37;100403.84;5052626;28;20083;-74
2022/03/03 01:00:29;;;;;;;0.63;0.50;;;;;;;23.80;11.59;100402.19;5052443;28;20033;-74
2022/03/03 01:02:54;;;;;;;0.50;0.50;;;;;;;23.80;11.46;100404.09;5034854;28;20028;-72
2022/03/03 01:05:20;;;;;;;0.50;0.50;;;;;;;23.78;11.58;100409.84;5052425;28;20024;-72
2022/03/03 01:07:45;;;;;;;0.45;0.45;;;;;;;23.75;11.74;100402.22;5052699;28;20036;-72
2022/03/03 01:10:11;;;;;;;0.50;0.50;;;;;;;23.79;11.66;100403.28;5054886;28;20025;-72
2022/03/03 01:12:36;;;;;;;0.50;0.50;;;;;;;23.78;11.55;100404.41;5056014;28;20460;-72
2022/03/03 01:15:05;;;;;;;0.45;0.45;;;;;;;23.79;11.90;100400.56;5055978;28;20040;-72
2022/03/03 01:17:31;;;;;;;0.40;0.40;;;;;;;23.78;11.77;100409.00;5056282;28;20033;-72
2022/03/03 01:19:56;;;;;;;0.50;0.50;;;;;;;23.78;12.06;100409.84;5055995;28;20021;-72
2022/03/03 01:22:22;;;;;;;0.60;0.60;;;;;;;23.77;11.64;100407.41;5055716;28;20098;-72
2022/03/03 01:24:47;;;;;;;0.50;0.50;;;;;;;23.78;11.69;100406.28;5055799;28;20449;-72
2022/03/03 01:27:12;;;;;;;0.50;0.50;;;;;;;23.78;11.68;100412.59;5056174;28;20048;-71
2022/03/03 01:29:38;;;;;;;0.50;0.50;;;;;;;23.71;11.48;100403.84;5055906;28;20021;-71
2022/03/03 01:32:05;;;;;;;0.50;0.50;;;;;;;23.79;11.05;100411.47;5055953;28;20479;-72
2022/03/03 01:34:30;;;;;;;0.60;0.60;;;;;;;23.76;11.38;100411.22;5055588;28;20025;-72
2022/03/03 01:36:56;;;;;;;0.50;0.50;;;;;;;23.75;11.44;100415.00;5055880;28;20025;-72
2022/03/03 01:39:21;;;;;;;0.40;0.40;;;;;;;23.77;11.30;100416.38;5055712;28;20476;-72
2022/03/03 01:41:46;;;;;;;0.60;0.60;;;;;;;23.75;11.25;100406.81;5055432;28;20412;-73
2022/03/03 01:44:12;;;;;;;0.40;0.40;;;;;;;23.77;11.50;100412.84;5056116;28;20035;-72
2022/03/03 01:46:48;;;;;;;0.40;0.40;;;;;;;23.76;11.31;100406.56;5055640;28;20393;-72
2022/03/03 01:49:13;;;;;;;0.43;0.43;;;;;;;23.76;11.04;100406.56;5055554;28;20017;-72
2022/03/03 01:51:39;;;;;;;0.40;0.40;;;;;;;23.75;11.16;100399.47;5055466;28;20365;-72
2022/03/03 01:54:04;;;;;;;0.40;0.40;;;;;;;23.75;11.00;100410.41;5055398;28;20033;-72
2022/03/03 01:56:29;;;;;;;0.50;0.50;;;;;;;23.74;10.82;100403.28;5054970;28;20039;-72
2022/03/03 01:58:55;;;;;;;0.50;0.50;;;;;;;23.74;10.95;100411.47;5020870;28;20029;-72
2022/03/03 02:01:20;;;;;;;0.50;0.50;;;;;;;23.74;10.89;100403.28;5056112;28;20033;-72
2022/03/03 02:03:45;;;;;;;0.50;0.50;;;;;;;23.75;10.75;100404.94;5021625;28;20364;-72
2022/03/03 02:06:11;;;;;;;0.52;0.40;;;;;;;23.74;10.96;100397.03;5055286;28;20468;-72
2022/03/03 02:08:36;;;;;;;0.40;0.40;;;;;;;23.75;10.95;100402.22;5054916;28;20032;-72
2022/03/03 02:11:02;;;;;;;0.55;0.55;;;;;;;23.74;10.89;100400.56;5054814;28;20029;-72
2022/03/03 02:13:27;;;;;;;0.60;0.50;;;;;;;23.75;11.02;100409.56;5036974;28;20139;-72
2022/03/03 02:15:55;;;;;;;0.50;0.50;;;;;;;23.71;10.96;100397.56;5055195;28;20021;-72
2022/03/03 02:18:21;;;;;;;0.50;0.50;;;;;;;23.74;10.98;100419.66;5037561;28;20031;-72
2022/03/03 02:20:47;;;;;;;0.45;0.45;;;;;;;23.73;11.04;100411.75;5053658;28;20380;-72
2022/03/03 02:23:12;;;;;;;0.63;0.63;;;;;;;23.75;10.82;100412.28;5054400;28;20478;-72
2022/03/03 02:25:38;;;;;;;0.40;0.40;;;;;;;23.74;11.07;100413.41;5054898;28;20075;-72
2022/03/03 02:28:04;;;;;;;0.50;0.50;;;;;;;23.72;11.04;100416.41;5055220;28;20036;-72
2022/03/03 02:30:29;;;;;;;0.50;0.50;;;;;;;23.74;10.98;100424.31;5054779;28;20083;-72
2022/03/03 02:32:54;;;;;;;0.85;0.60;;;;;;;23.74;10.86;100418.84;5054776;28;20471;-72
2022/03/03 02:35:20;;;;;;;0.55;0.40;;;;;;;23.74;10.84;100414.19;5054600;28;20029;-72
2022/03/03 02:37:46;;;;;;;0.40;0.40;;;;;;;23.72;10.44;100423.78;5054713;28;20028;-72
2022/03/03 02:40:13;;;;;;;0.40;0.40;;;;;;;23.71;10.60;100414.75;5054630;28;20159;-72
2022/03/03 02:42:39;;;;;;;0.40;0.40;;;;;;;23.72;10.65;100405.47;5054323;28;20475;-71
2022/03/03 02:45:04;;;;;;;0.50;0.50;;;;;;;23.72;10.56;100405.47;5055018;28;20031;-71
2022/03/03 02:47:30;;;;;;;0.40;0.40;;;;;;;23.72;10.37;100404.69;5054254;28;20040;-71
2022/03/03 02:49:55;;;;;;;0.70;0.70;;;;;;;23.71;10.35;100414.75;5054691;28;20029;-73
2022/03/03 02:52:21;;;;;;;0.60;0.60;;;;;;;23.70;10.37;100418.59;5054343;28;20071;-72
2022/03/03 02:54:46;;;;;;;0.38;0.38;;;;;;;23.71;10.56;100412.03;5054439;28;20021;-72
2022/03/03 02:59:56;;;;;;;0.50;0.50;;;;;;;23.72;10.45;100410.94;5054643;28;20032;-72
2022/03/03 03:02:21;;;;;;;0.40;0.40;;;;;;;23.71;10.45;100411.22;5055946;28;20387;-72
2022/03/03 03:04:47;;;;;;;0.40;0.40;;;;;;;23.72;10.42;100427.31;5056761;28;20021;-72
2022/03/03 03:07:12;;;;;;;0.30;0.30;;;;;;;23.73;10.52;100417.19;5057477;28;20029;-72
2022/03/03 03:09:37;;;;;;;4.65;0.50;;;;;;;23.72;10.50;100419.13;5056900;28;20033;-71
2022/03/03 03:12:03;;;;;;;0.50;0.50;;;;;;;23.71;10.55;100416.66;5056692;28;20456;-72
2022/03/03 03:14:28;;;;;;;0.60;0.47;;;;;;;23.72;10.35;100421.03;5056504;28;20032;-72
2022/03/03 03:16:54;;;;;;;0.40;0.40;;;;;;;23.72;10.31;100426.50;5056483;28;20021;-72
2022/03/03 03:19:20;;;;;;;0.45;0.45;;;;;;;23.71;10.36;100420.22;5056662;28;20082;-72
2022/03/03 03:21:46;;;;;;;0.30;0.30;;;;;;;23.70;10.19;100418.59;5056567;28;20033;-72
2022/03/03 03:24:11;;;;;;;0.40;0.40;;;;;;;23.72;10.38;100423.78;5056001;28;20051;-72
2022/03/03 03:26:37;;;;;;;0.40;0.40;;;;;;;23.71;10.30;100420.22;5056227;28;20100;-72
2022/03/03 03:29:03;;;;;;;0.60;0.50;;;;;;;23.71;10.04;100425.66;5056556;28;20450;-72
2022/03/03 03:31:29;;;;;;;0.47;0.47;;;;;;;23.71;10.17;100414.75;5056835;28;20025;-72
2022/03/03 03:33:54;;;;;;;0.50;0.50;;;;;;;23.71;10.37;100420.22;5053830;28;20029;-72
2022/03/03 03:36:19;;;;;;;0.35;0.35;;;;;;;23.71;10.32;100416.66;5053993;28;20021;-72
2022/03/03 03:38:45;;;;;;;1.02;0.50;;;;;;;23.71;10.23;100427.59;5054071;28;20029;-72
2022/03/03 03:41:10;;;;;;;0.50;0.50;;;;;;;23.71;10.09;100422.94;5053996;28;20359;-72
2022/03/03 03:43:36;;;;;;;0.65;0.60;;;;;;;23.70;10.29;100418.59;5055918;28;20033;-72
2022/03/03 03:46:04;;;;;;;0.40;0.40;;;;;;;23.71;10.03;100417.47;5053956;28;20083;-72
2022/03/03 03:48:30;;;;;;;0.40;0.40;;;;;;;23.67;10.31;100410.13;5053482;28;20494;-72
2022/03/03 03:50:55;;;;;;;0.38;0.38;;;;;;;23.69;10.36;100411.47;5053661;28;20024;-72
2022/03/03 03:53:21;;;;;;;0.40;0.40;;;;;;;23.69;10.34;100406.03;5053200;28;20487;-73
2022/03/03 03:55:46;;;;;;;0.40;0.40;;;;;;;23.69;10.47;100397.03;5053084;28;20510;-72
2022/03/03 03:58:11;;;;;;;0.40;0.40;;;;;;;23.68;10.57;100388.03;5053385;28;20025;-72
2022/03/03 04:00:37;;;;;;;0.40;0.40;;;;;;;23.65;10.43;100380.41;5035585;28;20025;-72
2022/03/03 04:03:02;;;;;;;0.40;0.40;;;;;;;23.71;10.32;100392.13;5053152;28;20037;-71
2022/03/03 04:05:28;;;;;;;0.60;0.60;;;;;;;23.70;10.47;100395.91;5052964;28;20466;-72
2022/03/03 04:07:53;;;;;;;0.40;0.40;;;;;;;23.67;10.84;100400.03;5053190;28;20021;-72
2022/03/03 04:10:19;;;;;;;0.40;0.40;;;;;;;23.67;10.69;100401.94;5053132;28;20455;-73
2022/03/03 04:12:47;;;;;;;0.32;0.32;;;;;;;23.68;10.39;100407.13;5052753;28;20497;-71
2022/03/03 04:15:13;;;;;;;0.32;0.32;;;;;;;23.72;10.50;100399.22;5053370;28;20025;-72
2022/03/03 04:17:38;;;;;;;0.30;0.30;;;;;;;23.73;10.57;100400.84;5053712;28;20143;-72
2022/03/03 04:20:05;;;;;;;0.30;0.30;;;;;;;23.76;10.58;100405.75;5053620;28;20387;-73
2022/03/03 04:22:30;;;;;;;0.43;0.43;;;;;;;23.81;10.63;100411.22;5053796;28;20048;-72
2022/03/03 04:24:56;;;;;;;0.40;0.40;;;;;;;23.83;10.64;100411.75;5053039;28;20033;-73
2022/03/03 04:27:22;;;;;;;0.43;0.43;;;;;;;23.88;10.67;100411.75;5053685;28;20028;-75
2022/03/03 04:29:47;;;;;;;0.43;0.43;;;;;;;23.93;10.49;100424.59;5053659;28;20037;-74
2022/03/03 04:32:12;;;;;;;0.40;0.40;;;;;;;23.99;10.66;100434.38;5053058;28;20382;-73
2022/03/03 04:34:39;;;;;;;0.40;0.40;;;;;;;24.00;10.49;100433.28;5053406;28;20037;-74
2022/03/03 04:37:04;;;;;;;0.40;0.40;;;;;;;24.05;10.48;100430.56;5053638;28;20021;-74
2022/03/03 04:39:30;;;;;;;0.43;0.43;;;;;;;24.08;10.45;100434.66;5052602;28;20365;-75
2022/03/03 04:41:56;;;;;;;0.30;0.30;;;;;;;24.11;10.24;100432.19;5052832;28;20063;-74
2022/03/03 04:44:21;;;;;;;0.38;0.38;;;;;;;24.14;10.07;100437.06;5053343;28;20025;-74
2022/03/03 04:46:46;;;;;;;0.30;0.30;;;;;;;24.17;10.13;100433.00;5056634;28;20020;-75
2022/03/03 04:49:12;;;;;;;0.40;0.40;;;;;;;24.21;9.98;100444.97;5056590;28;20029;-74
2022/03/03 04:51:39;;;;;;;0.55;0.50;;;;;;;24.21;10.19;100452.38;5056543;28;20379;-75
2022/03/03 04:54:05;;;;;;;0.30;0.30;;;;;;;24.26;10.05;100463.28;5057077;28;20021;-75
2022/03/03 04:56:30;;;;;;;0.30;0.30;;;;;;;24.31;9.88;100461.34;5056352;28;20017;-74
2022/03/03 04:58:55;;;;;;;0.40;0.40;;;;;;;24.34;9.85;100459.97;5055952;28;20024;-74
2022/03/03 05:01:21;;;;;;;0.32;0.32;;;;;;;24.38;9.90;100461.03;5056221;28;20025;-75
2022/03/03 05:03:46;;;;;;;0.25;0.25;;;;;;;24.42;10.16;100456.66;5056066;28;20021;-75
2022/03/03 05:06:12;;;;;;;0.38;0.30;;;;;;;24.46;10.02;100451.47;5056029;28;20021;-73
2022/03/03 05:08:37;;;;;;;0.50;0.50;;;;;;;24.45;10.30;100455.28;5056099;28;20033;-73
2022/03/03 05:11:05;;;;;;;0.40;0.40;;;;;;;24.46;10.38;100463.22;5056358;28;20364;-73
2022/03/03 05:13:31;;;;;;;0.32;0.32;;;;;;;24.47;10.39;100466.75;5038916;28;20029;-72
2022/03/03 05:15:56;;;;;;;0.57;0.47;;;;;;;24.49;10.38;100468.13;5056598;28;20028;-71
2022/03/03 05:18:22;;;;;;;0.50;0.50;;;;;;;24.53;10.26;100466.47;5055405;28;20041;-71
2022/03/03 05:20:47;;;;;;;0.30;0.30;;;;;;;24.51;10.47;100460.47;5056127;28;20025;-72
2022/03/03 05:23:13;;;;;;;0.32;0.32;;;;;;;24.54;10.62;100470.03;5038119;28;20080;-73
2022/03/03 05:25:39;;;;;;;0.40;0.40;;;;;;;24.50;10.67;100475.19;5017539;28;20560;-72
2022/03/03 05:28:04;;;;;;;0.35;0.35;;;;;;;24.56;10.32;100473.31;5055825;28;20069;-72
2022/03/03 05:30:30;;;;;;;0.35;0.35;;;;;;;24.57;10.55;100485.88;5037559;28;20093;-72
2022/03/03 05:32:55;;;;;;;0.32;0.32;;;;;;;24.57;10.63;100496.00;5055699;28;20035;-72
2022/03/03 05:35:21;;;;;;;0.30;0.30;;;;;;;24.55;10.77;100499.81;5055631;28;20456;-72
2022/03/03 05:37:46;;;;;;;0.30;0.30;;;;;;;24.60;10.85;100503.63;5055102;28;20459;-73
2022/03/03 05:40:12;;;;;;;0.30;0.30;;;;;;;24.60;11.28;100500.91;5055649;28;20025;-73
2022/03/03 05:42:38;;;;;;;0.40;0.40;;;;;;;24.61;11.03;100505.25;5055949;28;20496;-71
2022/03/03 05:45:27;;;;;;;0.73;0.38;;;;;;;24.63;11.10;100506.63;5055162;28;20487;-73
2022/03/03 05:47:52;;;;;;;0.32;0.32;;;;;;;24.64;11.35;100515.63;5053999;28;20044;-73
2022/03/03 05:50:17;;;;;;;0.20;0.20;;;;;;;24.64;11.28;100515.63;5055332;28;20036;-73
2022/03/03 05:52:43;;;;;;;0.30;0.30;;;;;;;24.61;11.68;100510.72;5037010;28;20040;-72
2022/03/03 05:55:08;;;;;;;0.38;0.30;;;;;;;24.63;11.56;100519.44;5054843;28;20091;-72
2022/03/03 05:57:44;;;;;;;0.55;0.35;;;;;;;24.66;11.90;100521.63;5054838;28;20032;-72
2022/03/03 06:00:16;;;;;;;0.30;0.30;;;;;;;24.61;11.65;100518.91;5055122;28;20060;-73
2022/03/03 06:02:49;;;;;;;0.50;0.40;;;;;;;24.64;12.13;100510.16;5055066;28;20021;-72
2022/03/03 06:05:17;;;;;;;0.20;0.20;;;;;;;24.65;12.02;100511.81;5054749;28;20032;-72
2022/03/03 06:07:44;;;;;;;0.20;0.20;;;;;;;24.69;12.13;100510.97;5055630;28;20021;-73
2022/03/03 06:10:09;;;;;;;0.90;0.30;;;;;;;24.74;12.17;100512.84;5037206;28;20029;-71
2022/03/03 06:12:43;;;;;;;0.22;0.22;;;;;;;24.76;12.30;100521.59;5036254;28;20033;-71
2022/03/03 06:15:09;;;;;;;0.30;0.20;;;;;;;24.76;12.40;100521.59;5036590;28;20036;-73
2022/03/03 06:17:35;;;;;;;0.32;0.20;;;;;;;24.76;12.52;100529.78;5054787;28;20362;-72
2022/03/03 06:20:00;;;;;;;0.20;0.20;;;;;;;24.83;12.59;100526.75;5054641;28;20025;-72
2022/03/03 06:22:26;;;;;;;0.20;0.20;;;;;;;24.79;12.50;100523.78;5054392;28;20391;-71
2022/03/03 06:24:51;;;;;;;0.20;0.20;;;;;;;24.81;12.62;100524.31;5054619;28;20040;-74
2022/03/03 06:27:16;;;;;;;0.35;0.30;;;;;;;24.84;12.46;100501.88;5054763;28;20087;-74
2022/03/03 06:29:42;;;;;;;0.73;0.30;;;;;;;24.90;12.48;100522.63;5054833;28;20025;-72
2022/03/03 06:32:07;;;;;;;0.17;0.17;;;;;;;24.83;12.69;100504.91;5054770;28;20112;-73
2022/03/03 06:34:33;;;;;;;0.20;0.20;;;;;;;24.86;12.77;100520.75;5036566;28;20024;-74
2022/03/03 06:36:58;;;;;;;0.30;0.30;;;;;;;24.92;12.69;100519.59;5054579;28;20079;-74
2022/03/03 06:39:23;;;;;;;0.25;0.20;;;;;;;24.93;12.66;100522.06;5054556;28;20149;-74
2022/03/03 06:41:50;;;;;;;0.20;0.20;;;;;;;24.91;12.67;100524.25;5054595;28;20091;-74
2022/03/03 06:44:15;;;;;;;0.35;0.30;;;;;;;24.84;12.77;100528.41;5054157;28;20025;-74
2022/03/03 06:46:41;;;;;;;1.50;0.20;;;;;;;24.84;12.89;100531.94;5054573;28;20071;-75
2022/03/03 06:49:06;;;;;;;0.10;0.10;;;;;;;24.89;13.01;100531.13;5054221;28;20029;-75
2022/03/03 06:51:38;;;;;;;0.43;0.20;;;;;;;24.89;13.10;100545.59;5053727;28;20013;-74
2022/03/03 06:54:03;;;;;;;0.20;0.20;;;;;;;24.96;13.27;100536.25;5020431;28;20029;-73
2022/03/03 06:56:30;;;;;;;0.47;0.30;;;;;;;24.93;13.13;100546.66;5054422;28;20028;-73
2022/03/03 06:58:59;;;;;;;0.20;0.20;;;;;;;24.97;12.94;100537.91;5053477;28;20025;-73
2022/03/03 07:01:25;;;;;;;0.47;0.30;;;;;;;24.98;13.19;100540.38;5053528;28;20025;-73
2022/03/03 07:03:50;;;;;;;0.65;0.30;;;;;;;24.98;13.14;100545.03;5035691;28;20156;-73
2022/03/03 07:06:16;;;;;;;0.20;0.20;;;;;;;24.97;13.37;100527.78;5035877;28;20016;-73
2022/03/03 07:08:41;;;;;;;0.40;0.30;;;;;;;25.02;13.24;100535.16;5053140;28;20025;-73
2022/03/03 07:11:07;;;;;;;0.30;0.30;;;;;;;25.03;13.01;100534.06;5054153;28;20048;-72
2022/03/03 07:13:32;;;;;;;0.30;0.20;;;;;;;25.08;13.08;100540.31;5054092;28;20057;-72
2022/03/03 07:16:29;;;;;;;0.20;0.20;;;;;;;25.13;13.09;100558.63;5053285;28;20341;-73
2022/03/03 07:18:54;;;;;;;0.30;0.30;;;;;;;25.14;13.17;100554.78;5053540;28;20048;-73
2022/03/03 07:21:44;;;;;;;0.45;0.30;;;;;;;25.17;13.04;100548.75;5035486;28;20025;-73
2022/03/03 07:24:25;;;;;;;0.50;0.30;;;;;;;25.13;13.25;100536.75;4973043;28;20043;-74
2022/03/03 07:26:51;;;;;;;0.85;0.47;;;;;;;25.18;12.97;100550.41;4963244;28;20534;-73
2022/03/03 07:29:16;;;;;;;2.22;0.70;;;;;;;25.19;13.13;100556.69;4955466;29;20119;-72
2022/03/03 07:31:50;;;;;;;2.15;0.80;;;;;;;25.20;12.96;100559.13;4955843;29;20031;-73
2022/03/03 07:34:16;;;;;;;1.60;0.57;;;;;;;25.18;13.13;100561.34;4955135;29;20114;-73
2022/03/03 07:36:42;;;;;;;0.35;0.35;;;;;;;25.21;13.21;100559.94;4938084;29;20493;-71
2022/03/03 07:39:10;;;;;;;0.73;0.40;;;;;;;25.21;13.47;100554.47;4953515;29;20039;-74
2022/03/03 07:41:35;;;;;;;0.77;0.60;;;;;;;25.25;13.62;100550.06;4953407;29;20047;-74
2022/03/03 07:44:01;;;;;;;1.83;0.90;;;;;;;25.27;13.20;100546.00;4952987;29;20027;-74
2022/03/03 07:46:26;;;;;;;3.13;1.27;;;;;;;25.33;13.19;100559.63;4953118;29;20082;-73
2022/03/03 07:48:53;;;;;;;3.55;1.17;;;;;;;25.33;13.00;100551.44;4953332;29;20043;-73
2022/03/03 07:51:20;;;;;;;2.30;1.00;;;;;;;25.38;13.22;100560.41;4954647;29;20071;-74
2022/03/03 07:53:45;;;;;;;1.83;0.93;;;;;;;25.37;13.18;100560.69;4954553;29;20167;-73
2022/03/03 07:56:13;;;;;;;1.77;0.98;;;;;;;25.39;12.98;100566.69;4954730;29;20126;-73
2022/03/03 07:58:41;;;;;;;3.45;1.15;;;;;;;25.40;12.93;100571.09;4954112;29;20424;-73
2022/03/03 08:01:07;;;;;;;1.50;0.90;;;;;;;25.45;13.13;100571.88;4984651;28;20040;-72
2022/03/03 08:03:33;;;;;;;2.20;0.90;;;;;;;25.47;12.85;100574.31;5016654;28;20131;-72
2022/03/03 08:05:58;;;;;;;3.70;1.20;;;;;;;25.42;12.94;100571.63;5017298;28;20029;-72
2022/03/03 08:08:28;;;;;;;1.40;0.68;;;;;;;25.43;12.99;100562.31;5034238;28;20467;-72
2022/03/03 08:10:58;;;;;;;1.88;0.80;;;;;;;25.42;13.43;100566.13;5033850;28;20084;-72
2022/03/03 08:13:23;;;;;;;1.42;0.80;;;;;;;25.45;13.24;100565.59;5033703;28;20049;-73
2022/03/03 08:15:48;;;;;;;1.85;0.70;;;;;;;25.49;12.86;100572.94;5000509;28;20029;-72
2022/03/03 08:18:14;;;;;;;1.92;0.50;;;;;;;25.46;13.14;100572.69;5017390;28;20418;-72
2022/03/03 08:20:40;;;;;;;2.08;0.70;;;;;;;25.49;13.27;100580.31;5037575;28;20101;-74
2022/03/03 08:23:06;;;;;;;0.52;0.50;;;;;;;25.53;13.28;100578.66;5037350;28;20495;-72
2022/03/03 08:25:32;;;;;;;1.63;0.55;;;;;;;25.57;13.61;100577.00;5037307;28;20021;-72
2022/03/03 08:27:58;;;;;;;0.43;0.40;;;;;;;25.58;13.32;100575.09;5056907;28;20114;-74
2022/03/03 08:30:24;;;;;;;0.30;0.30;;;;;;;25.63;13.38;100573.13;5057791;28;20021;-73
2022/03/03 08:33:03;;;;;;;1.27;0.30;;;;;;;25.68;13.15;100584.03;5057624;28;20471;-73
2022/03/03 08:35:30;;;;;;;0.57;0.40;;;;;;;25.67;13.27;100579.66;5058320;28;20317;-74
2022/03/03 08:38:17;;;;;;;0.32;0.32;;;;;;;25.67;13.27;100585.13;5057510;28;20082;-73
2022/03/03 08:40:44;;;;;;;0.57;0.30;;;;;;;25.70;12.88;100583.75;5039863;28;20024;-72
2022/03/03 08:43:09;;;;;;;0.40;0.30;;;;;;;25.68;12.88;100580.47;5039436;28;20520;-72
2022/03/03 08:45:35;;;;;;;0.30;0.30;;;;;;;25.67;13.09;100579.66;5057019;28;20033;-72
2022/03/03 08:48:07;;;;;;;0.40;0.30;;;;;;;25.66;13.07;100571.72;5056679;28;20096;-72
2022/03/03 08:50:35;;;;;;;1.30;0.32;;;;;;;25.73;12.89;100580.44;5057173;28;20025;-73
2022/03/03 08:53:01;;;;;;;0.28;0.28;;;;;;;25.78;12.83;100580.41;5057106;28;20420;-73
2022/03/03 08:55:27;;;;;;;1.00;0.30;;;;;;;25.77;12.74;100581.53;5056682;28;20048;-72
2022/03/03 08:57:52;;;;;;;0.30;0.30;;;;;;;25.75;13.00;100580.16;5038895;28;20096;-73
2022/03/03 09:00:18;;;;;;;6.35;0.80;;;;;;;25.78;13.14;100585.88;5056046;28;20383;-74
2022/03/03 09:02:43;;;;;;;0.30;0.30;;;;;;;25.83;12.93;100576.81;5055750;28;20021;-72
2022/03/03 09:05:10;;;;;;;0.20;0.20;;;;;;;25.82;12.86;100583.41;5038094;28;20372;-73
2022/03/03 09:07:35;;;;;;;0.60;0.28;;;;;;;25.82;12.88;100580.69;5055856;28;20105;-73
2022/03/03 09:10:01;;;;;;;0.55;0.30;;;;;;;25.81;12.92;100585.31;5055925;28;20017;-72
2022/03/03 09:12:27;;;;;;;0.30;0.30;;;;;;;25.85;12.76;100588.28;5055838;28;20025;-72
2022/03/03 09:14:52;;;;;;;0.75;0.30;;;;;;;25.86;12.65;100571.59;5055692;28;20025;-72
2022/03/03 09:17:18;;;;;;;0.25;0.20;;;;;;;25.91;12.65;100573.47;5055843;28;20363;-73
2022/03/03 09:19:43;;;;;;;1.55;0.28;;;;;;;25.89;12.66;100566.63;5055530;28;20427;-73
2022/03/03 09:22:08;;;;;;;0.30;0.30;;;;;;;25.96;12.63;100584.41;5055584;28;20029;-73
2022/03/03 09:24:34;;;;;;;0.43;0.20;;;;;;;25.98;12.80;100579.47;5056304;28;20033;-73
2022/03/03 09:26:59;;;;;;;0.28;0.20;;;;;;;25.97;12.86;100577.81;5055676;28;20460;-73
2022/03/03 09:29:26;;;;;;;0.20;0.20;;;;;;;25.99;12.63;100575.63;5055075;28;20032;-72
2022/03/03 09:31:51;;;;;;;2.08;0.75;;;;;;;26.01;12.60;100584.38;5055167;28;20048;-72
2022/03/03 09:34:17;;;;;;;0.20;0.20;;;;;;;25.97;12.73;100563.31;5055454;28;20468;-73
2022/03/03 09:36:42;;;;;;;0.20;0.20;;;;;;;26.04;12.66;100572.84;5055437;28;20029;-72
2022/03/03 09:39:07;;;;;;;0.20;0.20;;;;;;;26.08;12.42;100575.84;5055464;28;20021;-73
2022/03/03 09:41:34;;;;;;;0.20;0.20;;;;;;;26.04;12.56;100570.13;5055090;28;20379;-73
2022/03/03 09:43:59;;;;;;;0.50;0.40;;;;;;;26.07;12.64;100565.16;5055263;28;20036;-74
2022/03/03 09:46:25;;;;;;;0.45;0.20;;;;;;;26.11;12.29;100571.69;5055368;28;20029;-73
2022/03/03 09:48:52;;;;;;;0.32;0.20;;;;;;;26.15;12.49;100568.09;5055468;28;20021;-72
2022/03/03 09:51:17;;;;;;;0.20;0.20;;;;;;;26.15;12.39;100564.56;5055172;28;20025;-73
2022/03/03 09:53:43;;;;;;;0.10;0.10;;;;;;;26.19;12.45;100579.28;5054924;28;20040;-72
2022/03/03 09:56:08;;;;;;;0.20;0.20;;;;;;;26.10;12.31;100570.06;5055902;28;20029;-73
2022/03/03 09:58:33;;;;;;;0.15;0.15;;;;;;;26.15;12.20;100568.09;5055210;28;20478;-73
2022/03/03 10:00:59;;;;;;;0.20;0.20;;;;;;;26.24;12.22;100571.03;5054649;28;20040;-72
2022/03/03 10:03:32;;;;;;;0.20;0.20;;;;;;;26.21;12.41;100566.94;5055548;28;20029;-73
2022/03/03 10:06:00;;;;;;;1.48;0.20;;;;;;;26.20;12.42;100570.78;5057382;28;20029;-73
2022/03/03 10:08:25;;;;;;;0.45;0.10;;;;;;;26.22;12.54;100581.47;5055157;28;20090;-74
2022/03/03 10:10:53;;;;;;;0.15;0.15;;;;;;;26.20;12.38;100580.94;5054872;28;20021;-72
2022/03/03 10:13:18;;;;;;;0.10;0.10;;;;;;;26.21;12.36;100582.56;5055020;28;20476;-74
2022/03/03 10:15:54;;;;;;;0.20;0.20;;;;;;;26.20;12.67;100575.47;5056209;28;20021;-74
2022/03/03 10:18:19;;;;;;;0.17;0.17;;;;;;;26.16;12.44;100575.19;5055006;28;20112;-74
2022/03/03 10:20:47;;;;;;;0.20;0.20;;;;;;;26.11;12.74;100568.94;5055523;28;20104;-75
2022/03/03 10:23:13;;;;;;;0.25;0.20;;;;;;;26.02;12.50;100558.59;5055110;28;20071;-75
2022/03/03 10:25:39;;;;;;;0.20;0.20;;;;;;;26.13;12.58;100578.53;5054822;28;20479;-74
2022/03/03 10:28:16;;;;;;;0.20;0.20;;;;;;;26.21;12.53;100582.56;5036945;28;20049;-74
2022/03/03 10:30:59;;;;;;;0.20;0.20;;;;;;;26.15;12.37;100581.78;5055303;28;20025;-74
2022/03/03 10:33:30;;;;;;;0.13;0.13;;;;;;;26.18;12.22;100577.66;5055263;28;20029;-73
2022/03/03 10:36:08;;;;;;;0.20;0.20;;;;;;;26.22;12.30;100586.94;5055986;28;20029;-74
2022/03/03 10:38:49;;;;;;;0.30;0.22;;;;;;;26.17;12.28;100589.72;5054650;28;20033;-73
2022/03/03 10:41:29;;;;;;;0.60;0.20;;;;;;;26.18;12.32;100594.09;5054914;28;20102;-73
2022/03/03 10:43:56;;;;;;;0.55;0.20;;;;;;;26.11;12.19;100582.66;5054553;28;20021;-73
2022/03/03 10:46:21;;;;;;;0.68;0.40;;;;;;;26.13;12.46;100585.91;5054445;28;20083;-72
2022/03/03 10:48:46;;;;;;;1.95;0.40;;;;;;;26.21;12.35;100588.03;5036547;28;20463;-74
2022/03/03 10:51:16;;;;;;;0.50;0.40;;;;;;;26.13;12.07;100594.13;5054515;28;20025;-74
2022/03/03 10:53:43;;;;;;;0.45;0.30;;;;;;;26.14;12.23;100599.31;5055064;28;20104;-73
2022/03/03 10:56:12;;;;;;;1.00;0.40;;;;;;;26.13;12.35;100588.66;5054280;28;20029;-74
2022/03/03 10:58:47;;;;;;;0.98;0.38;;;;;;;26.18;12.17;100605.88;5054636;28;20039;-73
2022/03/03 11:01:13;;;;;;;2.67;0.40;;;;;;;26.20;12.29;100608.34;5054224;28;20044;-74
2022/03/03 11:03:39;;;;;;;1.45;0.52;;;;;;;26.22;12.10;100600.63;5054481;28;20025;-73
2022/03/03 11:06:06;;;;;;;0.88;0.70;;;;;;;26.17;12.24;100595.19;5037399;28;20017;-73
2022/03/03 11:08:31;;;;;;;2.50;0.90;;;;;;;26.20;12.30;100598.19;5036630;28;20160;-72
2022/03/03 11:10:57;;;;;;;3.75;0.95;;;;;;;26.11;12.43;100596.34;5036999;28;20028;-72
2022/03/03 11:13:22;;;;;;;1.63;0.65;;;;;;;26.16;12.44;100601.78;5055639;28;20376;-74
2022/03/03 11:15:48;;;;;;;3.33;0.60;;;;;;;26.20;12.24;100597.38;5053377;28;20349;-75
2022/03/03 11:18:18;;;;;;;0.98;0.40;;;;;;;26.18;12.28;100600.41;5020069;28;20324;-75
2022/03/03 11:20:46;;;;;;;0.85;0.43;;;;;;;26.20;12.13;100609.13;5020808;28;20025;-74
2022/03/03 11:23:12;;;;;;;0.80;0.40;;;;;;;26.17;12.23;100608.91;5053317;28;20446;-76
2022/03/03 11:25:37;;;;;;;1.05;0.50;;;;;;;26.16;12.01;100616.28;5054072;28;20029;-74